createdAt,value
2023-03-05T00:00:36.619Z,0.86
2023-03-05T00:03:07.012Z,0.80
2023-03-05T00:05:36.950Z,0.90
2023-03-05T00:08:07.309Z,0.70
2023-03-05T00:10:37.274Z,0.80
2023-03-05T00:13:10.194Z,0.77
2023-03-05T00:15:44.599Z,0.90
2023-03-05T00:18:14.627Z,1.00
2023-03-05T00:20:44.688Z,0.60
2023-03-05T00:23:16.184Z,0.65
2023-03-05T00:25:47.359Z,0.60
2023-03-05T00:28:17.264Z,0.60
2023-03-05T00:30:47.657Z,0.90
2023-03-05T00:33:17.574Z,0.70
2023-03-05T00:35:48.508Z,0.70
2023-03-05T00:38:18.495Z,0.80
2023-03-05T00:40:51.860Z,0.80
2023-03-05T00:43:22.094Z,0.70
2023-03-05T00:45:53.048Z,0.70
2023-03-05T00:48:24.591Z,0.70
2023-03-05T00:50:54.844Z,0.70
2023-03-05T00:53:24.883Z,0.80
2023-03-05T00:55:56.589Z,0.60
2023-03-05T00:58:26.898Z,0.70
2023-03-05T01:01:02.797Z,0.93
2023-03-05T01:03:41.191Z,0.90
2023-03-05T01:06:14.093Z,0.50
2023-03-05T01:08:45.902Z,0.80
2023-03-05T01:11:15.895Z,0.80
2023-03-05T01:13:45.900Z,0.60
2023-03-05T01:16:16.357Z,0.88
2023-03-05T01:18:48.191Z,0.80
2023-03-05T01:21:18.215Z,0.60
2023-03-05T01:23:53.654Z,0.70
2023-03-05T01:26:24.850Z,0.60
2023-03-05T01:28:57.786Z,0.80
2023-03-05T01:31:30.074Z,0.80
2023-03-05T01:34:01.525Z,0.80
2023-03-05T01:36:32.974Z,0.80
2023-03-05T01:39:04.008Z,0.65
2023-03-05T01:41:36.783Z,0.70
2023-03-05T01:44:11.980Z,0.70
2023-03-05T01:46:42.517Z,1.00
2023-03-05T01:49:34.684Z,0.60
2023-03-05T01:52:17.759Z,0.68
2023-03-05T01:54:57.836Z,0.75
2023-03-05T01:57:39.156Z,0.80
2023-03-05T02:00:12.410Z,0.88
2023-03-05T02:02:45.093Z,1.00
2023-03-05T02:05:18.017Z,0.90
2023-03-05T02:07:47.986Z,0.88
2023-03-05T02:10:25.459Z,0.73
2023-03-05T02:13:00.734Z,0.70
2023-03-05T02:15:36.611Z,0.70
2023-03-05T02:18:08.596Z,0.70
2023-03-05T02:20:55.291Z,0.67
2023-03-05T02:23:29.925Z,0.60
2023-03-05T02:26:03.659Z,0.80
2023-03-05T02:28:53.702Z,0.80
2023-03-05T02:31:28.087Z,0.83
2023-03-05T02:33:58.333Z,0.60
2023-03-05T02:36:35.888Z,0.80
2023-03-05T02:39:13.481Z,0.62
2023-03-05T02:41:45.438Z,0.80
2023-03-05T02:44:20.775Z,0.70
2023-03-05T02:47:00.190Z,0.68
2023-03-05T02:49:30.240Z,0.80
2023-03-05T02:52:00.152Z,0.80
2023-03-05T02:54:30.409Z,0.80
2023-03-05T02:57:00.961Z,0.90
2023-03-05T02:59:34.336Z,0.62
2023-03-05T03:02:04.837Z,0.80
2023-03-05T03:07:16.976Z,0.90
2023-03-05T03:09:46.965Z,0.80
2023-03-05T03:12:16.939Z,0.70
2023-03-05T03:15:00.002Z,1.10
2023-03-05T03:17:30.010Z,0.83
2023-03-05T03:20:02.182Z,0.80
2023-03-05T03:22:34.283Z,0.70
2023-03-05T03:25:05.618Z,0.90
2023-03-05T03:27:44.550Z,0.65
2023-03-05T03:30:23.639Z,0.90
2023-03-05T03:32:57.279Z,0.70
2023-03-05T03:35:33.611Z,0.77
2023-03-05T03:38:07.216Z,0.76
2023-03-05T03:40:43.677Z,0.80
2023-03-05T03:43:14.552Z,0.90
2023-03-05T03:45:47.631Z,0.90
2023-03-05T03:48:17.854Z,0.90
2023-03-05T03:50:49.106Z,0.80
2023-03-05T03:53:22.289Z,0.72
2023-03-05T03:55:52.302Z,0.60
2023-03-05T03:58:26.617Z,0.77
2023-03-05T04:03:35.304Z,0.80
2023-03-05T04:06:06.026Z,0.70
2023-03-05T04:08:42.745Z,0.60
2023-03-05T04:11:20.720Z,0.50
2023-03-05T04:13:47.771Z,0.70
2023-03-05T04:16:17.775Z,0.70
2023-03-05T04:18:48.024Z,0.80
2023-03-05T04:21:17.992Z,1.00
2023-03-05T04:23:47.841Z,0.90
2023-03-05T04:26:17.978Z,0.85
2023-03-05T04:28:49.144Z,0.75
2023-03-05T04:31:22.085Z,0.88
2023-03-05T04:33:52.147Z,1.00
2023-03-05T04:36:22.393Z,0.60
2023-03-05T04:38:52.566Z,0.70
2023-03-05T04:41:22.482Z,0.85
2023-03-05T04:44:14.463Z,1.00
2023-03-05T04:55:16.367Z,1.07
2023-03-05T05:13:13.948Z,0.75
2023-03-05T05:15:44.140Z,0.78
2023-03-05T05:18:13.993Z,0.80
2023-03-05T05:20:44.060Z,0.95
2023-03-05T05:23:14.408Z,0.85
2023-03-05T05:25:49.341Z,0.75
2023-03-05T05:28:19.568Z,0.90
2023-03-05T05:30:49.697Z,1.27
2023-03-05T05:33:19.995Z,0.80
2023-03-05T05:35:50.736Z,0.80
2023-03-05T05:38:21.814Z,0.77
2023-03-05T05:40:56.823Z,1.10
2023-03-05T05:43:26.989Z,0.80
2023-03-05T05:45:57.807Z,0.80
2023-03-05T05:48:32.486Z,0.90
2023-03-05T05:51:02.593Z,0.70
2023-03-05T05:53:33.197Z,0.70
2023-03-05T05:56:06.296Z,0.80
2023-03-05T05:58:43.985Z,0.60
2023-03-05T06:01:29.162Z,0.70
2023-03-05T06:04:05.931Z,0.88
2023-03-05T06:06:36.722Z,0.98
2023-03-05T06:09:06.758Z,0.70
2023-03-05T06:11:36.910Z,1.00
2023-03-05T06:14:11.974Z,0.90
2023-03-05T06:16:46.631Z,1.10
2023-03-05T06:19:22.164Z,0.80
2023-03-05T06:21:57.121Z,0.82
2023-03-05T06:24:32.337Z,0.70
2023-03-05T06:27:06.930Z,0.80
2023-03-05T06:29:43.499Z,1.02
2023-03-05T06:32:18.733Z,0.95
2023-03-05T06:34:49.470Z,0.75
2023-03-05T06:37:19.596Z,0.90
2023-03-05T06:39:49.743Z,0.70
2023-03-05T06:42:24.386Z,0.82
2023-03-05T06:44:54.860Z,0.90
2023-03-05T06:47:24.725Z,0.82
2023-03-05T06:49:54.641Z,0.80
2023-03-05T06:52:24.504Z,0.75
2023-03-05T06:54:55.837Z,0.85
2023-03-05T06:57:25.913Z,0.80
2023-03-05T06:59:55.867Z,0.80
2023-03-05T07:02:27.847Z,0.70
2023-03-05T07:04:58.024Z,0.80
2023-03-05T07:07:27.996Z,0.70
2023-03-05T07:09:57.859Z,0.68
2023-03-05T07:12:27.936Z,0.60
2023-03-05T07:14:58.025Z,0.60
2023-03-05T07:17:27.937Z,0.80
2023-03-05T07:19:57.884Z,0.70
2023-03-05T07:22:27.714Z,0.70
2023-03-05T07:24:57.609Z,0.85
2023-03-05T07:27:27.728Z,0.70
2023-03-05T07:29:57.620Z,0.80
2023-03-05T07:32:27.555Z,1.00
2023-03-05T07:34:57.659Z,0.50
2023-03-05T07:37:30.594Z,0.65
2023-03-05T07:40:00.510Z,0.80
2023-03-05T07:42:30.584Z,0.77
2023-03-05T07:45:00.512Z,0.70
2023-03-05T07:47:31.319Z,0.73
2023-03-05T07:50:01.261Z,0.75
2023-03-05T07:52:31.199Z,1.20
2023-03-05T07:55:01.815Z,0.70
2023-03-05T07:57:31.705Z,0.63
2023-03-05T08:00:01.772Z,0.80
2023-03-05T08:02:31.870Z,0.80
2023-03-05T08:05:03.400Z,0.80
2023-03-05T08:07:35.678Z,0.90
2023-03-05T08:10:09.231Z,1.10
2023-03-05T08:12:41.449Z,0.90
2023-03-05T08:15:16.372Z,0.80
2023-03-05T08:17:48.202Z,0.90
2023-03-05T08:20:21.124Z,0.80
2023-03-05T08:22:52.632Z,0.70
2023-03-05T08:25:28.380Z,0.93
2023-03-05T08:27:58.498Z,0.50
2023-03-05T08:30:28.360Z,0.77
2023-03-05T08:32:58.406Z,0.82
2023-03-05T08:35:31.975Z,0.88
2023-03-05T08:38:05.282Z,0.70
2023-03-05T08:40:34.957Z,0.70
2023-03-05T08:43:06.245Z,0.82
2023-03-05T08:45:36.318Z,0.75
2023-03-05T08:48:06.341Z,0.62
2023-03-05T08:50:39.027Z,1.00
2023-03-05T08:53:09.140Z,0.70
2023-03-05T08:55:38.986Z,0.70
2023-03-05T08:58:09.107Z,0.80
2023-03-05T09:00:38.963Z,0.70
2023-03-05T09:03:08.880Z,0.70
2023-03-05T09:05:41.671Z,0.90
2023-03-05T09:08:12.428Z,0.70
2023-03-05T09:10:46.168Z,0.80
2023-03-05T09:13:17.830Z,0.90
2023-03-05T09:15:48.033Z,0.70
2023-03-05T09:18:19.412Z,0.80
2023-03-05T09:20:50.904Z,0.93
2023-03-05T09:23:22.300Z,0.70
2023-03-05T09:25:52.170Z,0.60
2023-03-05T09:28:22.239Z,0.70
2023-03-05T09:30:52.224Z,0.50
2023-03-05T09:33:22.137Z,0.65
2023-03-05T09:35:52.099Z,0.50
2023-03-05T09:38:22.008Z,0.60
2023-03-05T09:41:08.099Z,0.85
2023-03-05T09:43:46.486Z,0.50
2023-03-05T09:46:21.716Z,0.60
2023-03-05T09:49:10.795Z,0.63
2023-03-05T09:51:42.829Z,0.68
2023-03-05T09:54:27.694Z,0.50
2023-03-05T09:56:58.224Z,0.62
2023-03-05T09:59:47.082Z,0.72
2023-03-05T10:02:37.960Z,0.70
2023-03-05T10:05:28.161Z,0.73
2023-03-05T10:08:03.958Z,0.60
2023-03-05T10:16:34.974Z,0.60
2023-03-05T10:19:33.859Z,0.75
2023-03-05T10:22:06.934Z,0.80
2023-03-05T10:24:51.454Z,0.70
2023-03-05T10:30:00.324Z,0.80
2023-03-05T10:32:37.431Z,0.67
2023-03-05T10:35:37.945Z,0.60
2023-03-05T10:38:43.412Z,0.53
2023-03-05T10:41:32.999Z,0.57
2023-03-05T10:44:17.838Z,0.60
2023-03-05T10:46:55.176Z,0.77
2023-03-05T10:49:39.501Z,0.60
2023-03-05T10:52:18.574Z,0.70
2023-03-05T10:54:48.707Z,0.60
2023-03-05T10:57:26.872Z,0.60
2023-03-05T11:00:01.745Z,0.70
2023-03-05T11:02:31.893Z,0.80
2023-03-05T11:05:08.092Z,0.60
2023-03-05T11:07:38.117Z,0.65
2023-03-05T11:10:18.772Z,0.50
2023-03-05T11:12:48.904Z,0.65
2023-03-05T11:15:23.142Z,0.50
2023-03-05T11:18:24.555Z,0.60
2023-03-05T11:20:55.939Z,0.60
2023-03-05T11:23:26.256Z,0.60
2023-03-05T11:26:07.395Z,0.50
2023-03-05T11:28:39.882Z,0.60
2023-03-05T11:31:22.565Z,0.50
2023-03-05T11:34:09.685Z,0.68
2023-03-05T11:36:43.576Z,0.50
2023-03-05T11:39:19.444Z,0.60
2023-03-05T11:42:03.816Z,0.60
2023-03-05T11:44:36.753Z,0.80
2023-03-05T11:47:15.213Z,0.72
2023-03-05T11:49:48.197Z,0.60
2023-03-05T11:52:26.768Z,0.60
2023-03-05T11:55:08.242Z,0.55
2023-03-05T11:57:48.859Z,0.50
2023-03-05T12:00:24.230Z,0.40
2023-03-05T12:02:55.388Z,0.40
2023-03-05T12:05:26.808Z,0.43
2023-03-05T12:08:01.692Z,0.50
2023-03-05T12:10:33.788Z,0.60
2023-03-05T12:13:34.687Z,0.53
2023-03-05T12:16:07.476Z,0.40
2023-03-05T12:18:55.295Z,0.42
2023-03-05T12:21:34.250Z,0.30
2023-03-05T12:24:05.656Z,0.45
2023-03-05T12:27:00.248Z,0.40
2023-03-05T12:29:52.849Z,0.40
2023-03-05T12:32:32.415Z,0.30
2023-03-05T12:35:05.924Z,0.50
2023-03-05T12:37:38.610Z,0.50
2023-03-05T12:40:30.286Z,0.50
2023-03-05T12:43:04.835Z,0.50
2023-03-05T12:45:42.174Z,0.60
2023-03-05T12:48:16.005Z,0.40
2023-03-05T12:50:48.708Z,0.40
2023-03-05T12:53:19.759Z,0.42
2023-03-05T12:55:58.195Z,0.40
2023-03-05T12:58:36.703Z,0.57
2023-03-05T13:01:15.029Z,0.57
2023-03-05T13:04:00.700Z,0.50
2023-03-05T13:06:34.304Z,0.53
2023-03-05T13:09:23.883Z,0.40
2023-03-05T13:11:54.633Z,0.40
2023-03-05T13:14:36.131Z,0.50
2023-03-05T13:17:07.520Z,0.50
2023-03-05T13:19:37.449Z,0.50
2023-03-05T13:22:09.104Z,0.40
2023-03-05T13:24:39.227Z,0.60
2023-03-05T13:27:11.863Z,0.40
2023-03-05T13:29:44.826Z,0.68
2023-03-05T13:32:23.875Z,0.62
2023-03-05T13:34:53.803Z,0.55
2023-03-05T13:40:54.529Z,0.60
2023-03-05T13:42:21.079Z,0.60
2023-03-05T13:43:24.445Z,0.65
2023-03-05T13:45:57.545Z,0.50
2023-03-05T13:48:28.472Z,0.70
2023-03-05T13:50:59.332Z,0.60
2023-03-05T13:53:30.498Z,0.53
2023-03-05T13:56:08.208Z,0.70
2023-03-05T13:58:57.011Z,0.80
2023-03-05T14:01:46.215Z,0.70
2023-03-05T14:04:21.334Z,0.70
2023-03-05T14:07:02.090Z,0.80
2023-03-05T14:09:43.332Z,0.73
2023-03-05T14:12:27.488Z,0.78
2023-03-05T14:14:58.707Z,0.53
2023-03-05T14:17:45.229Z,0.60
2023-03-05T14:20:31.211Z,0.50
2023-03-05T14:23:02.356Z,0.70
2023-03-05T14:25:40.288Z,0.68
2023-03-05T14:28:22.796Z,0.54
2023-03-05T14:30:53.771Z,0.90
2023-03-05T14:33:29.468Z,0.70
2023-03-05T14:35:59.649Z,0.90
2023-03-05T14:38:31.495Z,0.60
2023-03-05T14:41:02.675Z,0.60
2023-03-05T14:43:32.684Z,0.80
2023-03-05T14:46:02.609Z,0.80
2023-03-05T14:48:32.509Z,0.90
2023-03-05T14:51:04.789Z,0.77
2023-03-05T14:53:37.423Z,0.70
2023-03-05T14:56:08.983Z,0.93
2023-03-05T14:58:41.201Z,0.70
2023-03-05T15:01:13.740Z,0.70
2023-03-05T15:03:44.489Z,0.62
2023-03-05T15:06:26.048Z,0.90
2023-03-05T15:08:54.626Z,0.55
2023-03-05T15:11:24.579Z,0.60
2023-03-05T15:13:54.319Z,0.77
2023-03-05T15:16:24.212Z,0.98
2023-03-05T15:18:54.562Z,0.80
2023-03-05T15:21:24.416Z,0.80
2023-03-05T15:23:54.249Z,0.80
2023-03-05T15:26:24.384Z,0.80
2023-03-05T15:28:54.245Z,0.80
2023-03-05T15:31:25.496Z,0.82
2023-03-05T15:33:55.643Z,0.80
2023-03-05T15:36:25.514Z,0.80
2023-03-05T15:38:55.410Z,0.70
2023-03-05T15:41:25.573Z,0.93
2023-03-05T15:43:55.442Z,0.73
2023-03-05T15:46:25.315Z,0.90
2023-03-05T15:48:55.319Z,0.70
2023-03-05T15:51:25.338Z,0.90
2023-03-05T15:53:55.190Z,0.78
2023-03-05T15:56:25.066Z,1.05
2023-03-05T15:58:54.969Z,0.70
2023-03-05T16:01:25.117Z,0.70
2023-03-05T16:03:55.135Z,0.70
2023-03-05T16:06:25.194Z,0.70
2023-03-05T16:08:57.513Z,0.93
2023-03-05T16:11:27.781Z,0.85
2023-03-05T16:13:57.678Z,0.90
2023-03-05T16:16:27.731Z,0.80
2023-03-05T16:18:58.327Z,0.73
2023-03-05T16:21:28.293Z,0.85
2023-03-05T16:23:58.938Z,0.80
2023-03-05T16:26:29.031Z,0.90
2023-03-05T16:28:59.073Z,0.80
2023-03-05T16:31:34.832Z,0.80
2023-03-05T16:34:04.752Z,0.80
2023-03-05T16:36:36.094Z,0.80
2023-03-05T16:39:07.348Z,0.80
2023-03-05T16:41:37.232Z,0.80
2023-03-05T16:44:09.652Z,0.80
2023-03-05T16:46:39.595Z,0.90
2023-03-05T16:49:09.555Z,0.85
2023-03-05T16:51:39.820Z,0.70
2023-03-05T16:54:10.251Z,0.72
2023-03-05T16:56:40.224Z,0.90
2023-03-05T16:59:10.150Z,0.90
2023-03-05T17:01:40.015Z,0.93
2023-03-05T17:04:10.086Z,0.90
2023-03-05T17:06:40.105Z,0.95
2023-03-05T17:09:09.984Z,0.77
2023-03-05T17:11:42.108Z,0.80
2023-03-05T17:14:12.931Z,1.00
2023-03-05T17:16:43.998Z,0.86
2023-03-05T17:19:15.003Z,0.84
2023-03-05T17:21:45.127Z,0.98
2023-03-05T17:24:16.192Z,0.80
2023-03-05T17:26:46.734Z,0.90
2023-03-05T17:29:28.746Z,0.80
2023-03-05T17:31:58.897Z,0.88
2023-03-05T17:34:35.902Z,0.60
2023-03-05T17:37:00.530Z,0.82
2023-03-05T17:39:32.063Z,0.80
2023-03-05T17:42:02.169Z,0.70
2023-03-05T17:44:32.275Z,0.95
2023-03-05T17:47:03.284Z,0.92
2023-03-05T17:49:34.127Z,1.00
2023-03-05T17:52:04.627Z,1.15
2023-03-05T17:54:36.199Z,0.93
2023-03-05T17:57:06.758Z,0.80
2023-03-05T17:59:36.667Z,0.70
2023-03-05T18:02:07.223Z,0.76
2023-03-05T18:04:37.347Z,0.90
2023-03-05T18:07:07.255Z,1.00
2023-03-05T18:09:37.152Z,1.20
2023-03-05T18:12:07.479Z,1.12
2023-03-05T18:14:38.078Z,0.90
2023-03-05T18:17:08.092Z,1.00
2023-03-05T18:19:38.033Z,0.82
2023-03-05T18:22:07.919Z,1.00
2023-03-05T18:24:38.110Z,1.25
2023-03-05T18:27:08.167Z,0.95
2023-03-05T18:29:38.134Z,1.22
2023-03-05T18:32:08.924Z,1.00
2023-03-05T18:34:39.001Z,1.10
2023-03-05T18:37:09.020Z,1.15
2023-03-05T18:39:39.207Z,1.20
2023-03-05T18:42:10.930Z,1.05
2023-03-05T18:44:41.036Z,1.40
2023-03-05T18:47:11.201Z,1.07
2023-03-05T18:49:41.182Z,1.53
2023-03-05T18:52:37.248Z,1.20
2023-03-05T18:55:08.217Z,1.00
2023-03-05T18:57:38.387Z,1.00
2023-03-05T19:00:09.144Z,0.93
2023-03-05T19:02:39.113Z,0.95
2023-03-05T19:05:09.483Z,1.00
2023-03-05T19:07:39.632Z,1.00
2023-03-05T19:10:11.352Z,0.90
2023-03-05T19:12:49.474Z,1.07
2023-03-05T19:15:22.392Z,1.00
2023-03-05T19:17:52.484Z,1.00
2023-03-05T19:20:22.531Z,1.00
2023-03-05T19:22:53.690Z,1.10
2023-03-05T19:25:23.940Z,1.20
2023-03-05T19:27:53.909Z,1.10
2023-03-05T19:30:24.026Z,0.90
2023-03-05T19:32:59.097Z,1.10
2023-03-05T19:35:29.419Z,0.90
2023-03-05T19:38:01.524Z,1.32
2023-03-05T19:40:31.463Z,1.27
2023-03-05T19:43:02.598Z,1.12
2023-03-05T19:45:37.832Z,0.90
2023-03-05T19:48:10.302Z,1.30
2023-03-05T19:50:41.040Z,1.22
2023-03-05T19:53:15.340Z,0.95
2023-03-05T19:58:14.538Z,1.37
2023-03-05T20:00:44.437Z,1.00
2023-03-05T20:03:14.302Z,0.90
2023-03-05T20:05:44.700Z,0.93
2023-03-05T20:08:14.929Z,1.00
2023-03-05T20:10:47.335Z,1.02
2023-03-05T20:13:17.235Z,0.95
2023-03-05T20:15:47.901Z,0.90
2023-03-05T20:18:18.995Z,0.85
2023-03-05T20:20:50.392Z,1.10
2023-03-05T20:23:20.585Z,1.00
2023-03-05T20:25:58.028Z,0.95
2023-03-05T20:28:28.594Z,0.90
2023-03-05T20:30:59.022Z,1.02
2023-03-05T20:33:36.662Z,1.00
2023-03-05T20:36:08.351Z,1.00
2023-03-05T20:38:38.303Z,1.25
2023-03-05T20:41:18.260Z,0.90
2023-03-05T20:43:49.684Z,1.00
2023-03-05T20:46:26.485Z,0.85
2023-03-05T20:48:58.554Z,1.20
2023-03-05T20:51:44.010Z,0.90
2023-03-05T20:54:27.189Z,0.98
2023-03-05T20:56:57.182Z,1.42
2023-03-05T20:59:27.290Z,1.02
2023-03-05T21:02:09.577Z,0.80
2023-03-05T21:04:39.686Z,0.90
2023-03-05T21:07:10.552Z,0.80
2023-03-05T21:09:40.655Z,1.00
2023-03-05T21:12:14.210Z,0.80
2023-03-05T21:14:44.126Z,1.10
2023-03-05T21:17:14.033Z,0.85
2023-03-05T21:19:45.428Z,0.70
2023-03-05T21:22:17.258Z,1.00
2023-03-05T21:24:48.455Z,1.10
2023-03-05T21:27:18.453Z,0.75
2023-03-05T21:29:48.367Z,1.02
2023-03-05T21:32:18.348Z,0.93
2023-03-05T21:34:48.907Z,1.00
2023-03-05T21:37:19.244Z,0.93
2023-03-05T21:39:49.220Z,0.90
2023-03-05T21:42:19.682Z,0.90
2023-03-05T21:44:52.209Z,0.70
2023-03-05T21:47:23.784Z,0.80
2023-03-05T21:49:54.804Z,0.83
2023-03-05T21:52:25.157Z,0.80
2023-03-05T21:54:57.820Z,0.80
2023-03-05T21:57:28.827Z,0.70
2023-03-05T21:59:59.058Z,0.88
2023-03-05T22:02:29.115Z,0.93
2023-03-05T22:04:59.224Z,0.90
2023-03-05T22:07:29.330Z,0.90
2023-03-05T22:09:59.319Z,0.80
2023-03-05T22:12:44.957Z,0.75
2023-03-05T22:15:15.191Z,0.72
2023-03-05T22:17:45.230Z,0.70
2023-03-05T22:20:15.316Z,0.90
2023-03-05T22:22:51.899Z,0.70
2023-03-05T22:25:29.171Z,0.97
2023-03-05T22:27:59.936Z,0.95
2023-03-05T22:30:29.860Z,0.95
2023-03-05T22:33:05.748Z,0.70
2023-03-05T22:35:36.286Z,0.90
2023-03-05T22:38:07.379Z,0.78
2023-03-05T22:40:39.703Z,0.82
2023-03-05T22:43:11.960Z,0.80
2023-03-05T22:45:42.430Z,0.87
2023-03-05T22:48:13.742Z,0.80
2023-03-05T22:50:44.769Z,0.80
2023-03-05T22:53:15.455Z,0.90
2023-03-05T22:55:45.527Z,0.83
2023-03-05T22:58:15.435Z,1.05
2023-03-05T23:00:45.978Z,1.15
2023-03-05T23:03:24.053Z,1.30
2023-03-05T23:05:56.538Z,0.90
2023-03-05T23:08:29.206Z,0.90
2023-03-05T23:10:59.288Z,0.82
2023-03-05T23:13:31.602Z,0.90
2023-03-05T23:16:02.105Z,1.00
2023-03-05T23:18:32.026Z,1.20
2023-03-05T23:21:02.369Z,1.27
2023-03-05T23:23:33.289Z,0.90
2023-03-05T23:26:03.880Z,1.00
2023-03-05T23:28:35.743Z,0.80
2023-03-05T23:31:07.362Z,1.02
2023-03-05T23:33:38.121Z,1.20
2023-03-05T23:36:10.616Z,1.02
2023-03-05T23:38:43.053Z,1.00
2023-03-05T23:41:12.990Z,1.10
2023-03-05T23:43:46.934Z,0.90
2023-03-05T23:46:16.075Z,0.93
2023-03-05T23:48:46.054Z,0.90
2023-03-05T23:51:15.993Z,1.10
2023-03-05T23:53:46.449Z,1.10
2023-03-05T23:56:16.583Z,1.00
2023-03-05T23:58:46.688Z,1.07
